sensor_id;sensor_type;location;lat;lon;timestamp;P1;durP1;ratioP1;P2;durP2;ratioP2
72273;SDS011;60208;48.692;8.948;2023-04-12T00:00:22;11.07;;;3.80;;
72273;SDS011;60208;48.692;8.948;2023-04-12T00:02:48;9.25;;;3.42;;
72273;SDS011;60208;48.692;8.948;2023-04-12T00:05:18;9.05;;;3.72;;
72273;SDS011;60208;48.692;8.948;2023-04-12T00:07:47;8.77;;;3.70;;
72273;SDS011;60208;48.692;8.948;2023-04-12T00:10:13;7.22;;;4.03;;
72273;SDS011;60208;48.692;8.948;2023-04-12T00:12:38;9.48;;;3.80;;
72273;SDS011;60208;48.692;8.948;2023-04-12T00:15:05;8.48;;;3.65;;
72273;SDS011;60208;48.692;8.948;2023-04-12T00:17:31;8.25;;;3.53;;
72273;SDS011;60208;48.692;8.948;2023-04-12T00:19:56;7.85;;;3.70;;
72273;SDS011;60208;48.692;8.948;2023-04-12T00:22:22;8.48;;;3.50;;
72273;SDS011;60208;48.692;8.948;2023-04-12T00:24:50;7.53;;;3.60;;
72273;SDS011;60208;48.692;8.948;2023-04-12T00:27:15;10.05;;;3.95;;
72273;SDS011;60208;48.692;8.948;2023-04-12T00:29:41;8.15;;;3.53;;
72273;SDS011;60208;48.692;8.948;2023-04-12T00:32:06;8.02;;;3.67;;
72273;SDS011;60208;48.692;8.948;2023-04-12T00:34:32;9.23;;;3.58;;
72273;SDS011;60208;48.692;8.948;2023-04-12T00:36:57;11.63;;;3.70;;
72273;SDS011;60208;48.692;8.948;2023-04-12T00:39:22;9.93;;;3.75;;
72273;SDS011;60208;48.692;8.948;2023-04-12T00:41:48;10.27;;;3.45;;
72273;SDS011;60208;48.692;8.948;2023-04-12T00:44:13;7.32;;;3.67;;
72273;SDS011;60208;48.692;8.948;2023-04-12T00:46:42;7.60;;;3.88;;
72273;SDS011;60208;48.692;8.948;2023-04-12T00:49:08;10.35;;;3.85;;
72273;SDS011;60208;48.692;8.948;2023-04-12T00:51:33;9.63;;;3.70;;
72273;SDS011;60208;48.692;8.948;2023-04-12T00:53:59;7.88;;;3.70;;
72273;SDS011;60208;48.692;8.948;2023-04-12T00:56:25;10.65;;;3.55;;
72273;SDS011;60208;48.692;8.948;2023-04-12T00:58:56;8.32;;;3.40;;
72273;SDS011;60208;48.692;8.948;2023-04-12T01:01:22;10.20;;;3.85;;
72273;SDS011;60208;48.692;8.948;2023-04-12T01:03:48;9.45;;;3.75;;
72273;SDS011;60208;48.692;8.948;2023-04-12T01:09:18;6.07;;;3.33;;
72273;SDS011;60208;48.692;8.948;2023-04-12T01:12:41;8.52;;;3.42;;
72273;SDS011;60208;48.692;8.948;2023-04-12T01:15:09;7.05;;;3.33;;
72273;SDS011;60208;48.692;8.948;2023-04-12T01:17:46;8.10;;;3.85;;
72273;SDS011;60208;48.692;8.948;2023-04-12T01:20:14;6.38;;;3.35;;
72273;SDS011;60208;48.692;8.948;2023-04-12T01:28:06;8.23;;;3.28;;
72273;SDS011;60208;48.692;8.948;2023-04-12T01:30:34;9.48;;;3.72;;
72273;SDS011;60208;48.692;8.948;2023-04-12T01:33:02;8.23;;;3.20;;
72273;SDS011;60208;48.692;8.948;2023-04-12T01:35:30;8.10;;;3.28;;
72273;SDS011;60208;48.692;8.948;2023-04-12T01:37:56;7.80;;;3.35;;
72273;SDS011;60208;48.692;8.948;2023-04-12T01:40:22;8.38;;;3.30;;
72273;SDS011;60208;48.692;8.948;2023-04-12T01:42:48;7.75;;;3.10;;
72273;SDS011;60208;48.692;8.948;2023-04-12T01:45:13;5.25;;;3.10;;
72273;SDS011;60208;48.692;8.948;2023-04-12T01:47:39;6.70;;;2.88;;
72273;SDS011;60208;48.692;8.948;2023-04-12T01:53:22;6.38;;;3.03;;
72273;SDS011;60208;48.692;8.948;2023-04-12T01:55:51;6.78;;;3.20;;
72273;SDS011;60208;48.692;8.948;2023-04-12T01:58:21;9.07;;;3.13;;
72273;SDS011;60208;48.692;8.948;2023-04-12T02:00:48;8.88;;;3.00;;
72273;SDS011;60208;48.692;8.948;2023-04-12T02:03:14;7.35;;;2.75;;
72273;SDS011;60208;48.692;8.948;2023-04-12T02:05:40;7.78;;;3.17;;
72273;SDS011;60208;48.692;8.948;2023-04-12T02:08:06;8.35;;;3.40;;
72273;SDS011;60208;48.692;8.948;2023-04-12T02:10:31;7.38;;;3.30;;
72273;SDS011;60208;48.692;8.948;2023-04-12T02:12:58;7.63;;;3.05;;
72273;SDS011;60208;48.692;8.948;2023-04-12T02:15:26;7.03;;;2.80;;
72273;SDS011;60208;48.692;8.948;2023-04-12T02:17:52;7.03;;;2.67;;
72273;SDS011;60208;48.692;8.948;2023-04-12T02:20:21;8.23;;;2.92;;
72273;SDS011;60208;48.692;8.948;2023-04-12T02:22:48;9.07;;;3.40;;
72273;SDS011;60208;48.692;8.948;2023-04-12T02:25:14;7.28;;;3.20;;
72273;SDS011;60208;48.692;8.948;2023-04-12T02:27:41;8.73;;;3.35;;
72273;SDS011;60208;48.692;8.948;2023-04-12T02:30:07;6.93;;;2.88;;
72273;SDS011;60208;48.692;8.948;2023-04-12T02:32:33;6.32;;;3.00;;
72273;SDS011;60208;48.692;8.948;2023-04-12T02:35:07;7.10;;;2.90;;
72273;SDS011;60208;48.692;8.948;2023-04-12T02:37:33;6.65;;;3.17;;
72273;SDS011;60208;48.692;8.948;2023-04-12T02:39:59;7.95;;;2.70;;
72273;SDS011;60208;48.692;8.948;2023-04-12T02:42:26;7.45;;;3.03;;
72273;SDS011;60208;48.692;8.948;2023-04-12T02:44:51;5.72;;;2.75;;
72273;SDS011;60208;48.692;8.948;2023-04-12T02:47:17;5.10;;;3.17;;
72273;SDS011;60208;48.692;8.948;2023-04-12T02:49:42;6.03;;;2.58;;
72273;SDS011;60208;48.692;8.948;2023-04-12T02:52:07;8.10;;;3.08;;
72273;SDS011;60208;48.692;8.948;2023-04-12T02:54:33;6.72;;;3.00;;
72273;SDS011;60208;48.692;8.948;2023-04-12T02:56:59;5.75;;;2.90;;
72273;SDS011;60208;48.692;8.948;2023-04-12T02:59:24;5.70;;;2.88;;
72273;SDS011;60208;48.692;8.948;2023-04-12T03:01:49;6.95;;;2.67;;
72273;SDS011;60208;48.692;8.948;2023-04-12T03:04:15;7.32;;;2.95;;
72273;SDS011;60208;48.692;8.948;2023-04-12T03:06:41;6.30;;;2.80;;
72273;SDS011;60208;48.692;8.948;2023-04-12T03:09:16;5.93;;;2.60;;
72273;SDS011;60208;48.692;8.948;2023-04-12T03:11:42;8.23;;;3.08;;
72273;SDS011;60208;48.692;8.948;2023-04-12T03:14:07;7.45;;;3.00;;
72273;SDS011;60208;48.692;8.948;2023-04-12T03:16:33;5.38;;;2.60;;
72273;SDS011;60208;48.692;8.948;2023-04-12T03:18:59;6.78;;;2.70;;
72273;SDS011;60208;48.692;8.948;2023-04-12T03:21:25;7.25;;;3.08;;
72273;SDS011;60208;48.692;8.948;2023-04-12T03:23:52;5.55;;;2.80;;
72273;SDS011;60208;48.692;8.948;2023-04-12T03:26:17;6.55;;;2.80;;
72273;SDS011;60208;48.692;8.948;2023-04-12T03:28:44;7.35;;;3.17;;
72273;SDS011;60208;48.692;8.948;2023-04-12T03:31:10;6.07;;;2.85;;
72273;SDS011;60208;48.692;8.948;2023-04-12T03:33:36;5.47;;;2.80;;
72273;SDS011;60208;48.692;8.948;2023-04-12T03:36:02;5.53;;;2.58;;
72273;SDS011;60208;48.692;8.948;2023-04-12T03:38:28;8.50;;;2.63;;
72273;SDS011;60208;48.692;8.948;2023-04-12T03:40:54;7.07;;;2.60;;
72273;SDS011;60208;48.692;8.948;2023-04-12T03:43:19;6.05;;;2.33;;
72273;SDS011;60208;48.692;8.948;2023-04-12T03:45:46;5.95;;;2.80;;
72273;SDS011;60208;48.692;8.948;2023-04-12T03:48:11;5.72;;;2.67;;
72273;SDS011;60208;48.692;8.948;2023-04-12T03:50:37;4.22;;;2.17;;
72273;SDS011;60208;48.692;8.948;2023-04-12T03:53:08;4.80;;;2.50;;
72273;SDS011;60208;48.692;8.948;2023-04-12T03:55:34;3.53;;;2.53;;
72273;SDS011;60208;48.692;8.948;2023-04-12T03:58:01;6.25;;;2.50;;
72273;SDS011;60208;48.692;8.948;2023-04-12T04:00:27;4.97;;;2.20;;
72273;SDS011;60208;48.692;8.948;2023-04-12T04:02:53;4.93;;;2.70;;
72273;SDS011;60208;48.692;8.948;2023-04-12T04:05:18;7.97;;;2.60;;
72273;SDS011;60208;48.692;8.948;2023-04-12T04:07:44;4.75;;;2.90;;
72273;SDS011;60208;48.692;8.948;2023-04-12T04:10:09;8.85;;;4.10;;
72273;SDS011;60208;48.692;8.948;2023-04-12T04:12:35;6.50;;;3.00;;
72273;SDS011;60208;48.692;8.948;2023-04-12T04:15:00;5.95;;;2.50;;
72273;SDS011;60208;48.692;8.948;2023-04-12T04:17:25;4.25;;;2.53;;
72273;SDS011;60208;48.692;8.948;2023-04-12T04:19:51;5.47;;;2.30;;
72273;SDS011;60208;48.692;8.948;2023-04-12T04:22:16;4.28;;;2.25;;
72273;SDS011;60208;48.692;8.948;2023-04-12T04:24:45;4.40;;;2.33;;
72273;SDS011;60208;48.692;8.948;2023-04-12T04:27:12;5.80;;;2.55;;
72273;SDS011;60208;48.692;8.948;2023-04-12T04:29:39;4.93;;;2.00;;
72273;SDS011;60208;48.692;8.948;2023-04-12T04:32:09;4.90;;;2.20;;
72273;SDS011;60208;48.692;8.948;2023-04-12T04:34:37;3.55;;;1.80;;
72273;SDS011;60208;48.692;8.948;2023-04-12T04:37:02;5.78;;;2.45;;
72273;SDS011;60208;48.692;8.948;2023-04-12T04:39:27;4.75;;;2.15;;
72273;SDS011;60208;48.692;8.948;2023-04-12T04:41:53;4.07;;;2.30;;
72273;SDS011;60208;48.692;8.948;2023-04-12T04:44:18;8.18;;;2.45;;
72273;SDS011;60208;48.692;8.948;2023-04-12T04:46:44;5.22;;;2.63;;
72273;SDS011;60208;48.692;8.948;2023-04-12T04:49:10;5.28;;;2.80;;
72273;SDS011;60208;48.692;8.948;2023-04-12T04:51:35;4.72;;;2.78;;
72273;SDS011;60208;48.692;8.948;2023-04-12T04:54:01;4.30;;;2.60;;
72273;SDS011;60208;48.692;8.948;2023-04-12T04:56:27;5.68;;;3.05;;
72273;SDS011;60208;48.692;8.948;2023-04-12T04:58:52;4.30;;;2.38;;
72273;SDS011;60208;48.692;8.948;2023-04-12T05:01:18;4.50;;;2.90;;
72273;SDS011;60208;48.692;8.948;2023-04-12T05:03:43;4.50;;;2.55;;
72273;SDS011;60208;48.692;8.948;2023-04-12T05:06:09;4.75;;;2.47;;
72273;SDS011;60208;48.692;8.948;2023-04-12T05:08:35;5.55;;;2.55;;
72273;SDS011;60208;48.692;8.948;2023-04-12T05:11:01;5.75;;;2.88;;
72273;SDS011;60208;48.692;8.948;2023-04-12T05:13:26;5.70;;;2.63;;
72273;SDS011;60208;48.692;8.948;2023-04-12T05:15:52;3.53;;;2.40;;
72273;SDS011;60208;48.692;8.948;2023-04-12T05:18:17;4.25;;;2.30;;
72273;SDS011;60208;48.692;8.948;2023-04-12T05:20:43;4.60;;;2.60;;
72273;SDS011;60208;48.692;8.948;2023-04-12T05:23:09;3.70;;;2.13;;
72273;SDS011;60208;48.692;8.948;2023-04-12T05:25:34;4.93;;;2.70;;
72273;SDS011;60208;48.692;8.948;2023-04-12T05:27:59;4.38;;;2.60;;
72273;SDS011;60208;48.692;8.948;2023-04-12T05:30:25;4.03;;;2.42;;
72273;SDS011;60208;48.692;8.948;2023-04-12T05:32:50;4.10;;;2.70;;
72273;SDS011;60208;48.692;8.948;2023-04-12T05:35:16;7.13;;;2.58;;
72273;SDS011;60208;48.692;8.948;2023-04-12T05:37:41;8.27;;;5.20;;
72273;SDS011;60208;48.692;8.948;2023-04-12T05:40:07;5.72;;;3.33;;
72273;SDS011;60208;48.692;8.948;2023-04-12T05:42:34;5.57;;;4.05;;
72273;SDS011;60208;48.692;8.948;2023-04-12T05:45:01;7.38;;;5.13;;
72273;SDS011;60208;48.692;8.948;2023-04-12T05:47:27;9.70;;;5.32;;
72273;SDS011;60208;48.692;8.948;2023-04-12T05:49:53;9.23;;;3.70;;
72273;SDS011;60208;48.692;8.948;2023-04-12T05:52:18;8.18;;;4.55;;
72273;SDS011;60208;48.692;8.948;2023-04-12T05:54:43;7.18;;;5.35;;
72273;SDS011;60208;48.692;8.948;2023-04-12T05:57:09;6.63;;;3.50;;
72273;SDS011;60208;48.692;8.948;2023-04-12T05:59:34;7.70;;;2.85;;
72273;SDS011;60208;48.692;8.948;2023-04-12T06:02:00;5.03;;;2.90;;
72273;SDS011;60208;48.692;8.948;2023-04-12T06:04:25;4.78;;;2.60;;
72273;SDS011;60208;48.692;8.948;2023-04-12T06:06:51;7.18;;;2.67;;
72273;SDS011;60208;48.692;8.948;2023-04-12T06:09:16;3.35;;;2.10;;
72273;SDS011;60208;48.692;8.948;2023-04-12T06:11:42;2.85;;;2.15;;
72273;SDS011;60208;48.692;8.948;2023-04-12T06:14:07;4.07;;;2.08;;
72273;SDS011;60208;48.692;8.948;2023-04-12T06:16:33;3.58;;;2.38;;
72273;SDS011;60208;48.692;8.948;2023-04-12T06:18:58;3.53;;;2.05;;
72273;SDS011;60208;48.692;8.948;2023-04-12T06:21:24;4.47;;;2.05;;
72273;SDS011;60208;48.692;8.948;2023-04-12T06:23:49;3.50;;;2.00;;
72273;SDS011;60208;48.692;8.948;2023-04-12T06:26:15;2.92;;;2.05;;
72273;SDS011;60208;48.692;8.948;2023-04-12T06:28:40;5.47;;;2.28;;
72273;SDS011;60208;48.692;8.948;2023-04-12T06:31:05;4.53;;;2.20;;
72273;SDS011;60208;48.692;8.948;2023-04-12T06:33:31;4.47;;;2.00;;
72273;SDS011;60208;48.692;8.948;2023-04-12T06:35:56;5.40;;;2.42;;
72273;SDS011;60208;48.692;8.948;2023-04-12T06:38:22;4.50;;;2.08;;
72273;SDS011;60208;48.692;8.948;2023-04-12T06:40:47;3.22;;;2.30;;
72273;SDS011;60208;48.692;8.948;2023-04-12T06:43:14;7.30;;;2.50;;
72273;SDS011;60208;48.692;8.948;2023-04-12T06:45:43;4.75;;;2.25;;
72273;SDS011;60208;48.692;8.948;2023-04-12T06:48:08;3.95;;;2.30;;
72273;SDS011;60208;48.692;8.948;2023-04-12T06:50:34;4.70;;;2.40;;
72273;SDS011;60208;48.692;8.948;2023-04-12T06:52:59;4.47;;;2.50;;
72273;SDS011;60208;48.692;8.948;2023-04-12T06:55:25;4.15;;;1.92;;
72273;SDS011;60208;48.692;8.948;2023-04-12T06:57:53;3.97;;;2.33;;
72273;SDS011;60208;48.692;8.948;2023-04-12T07:00:19;4.15;;;2.58;;
72273;SDS011;60208;48.692;8.948;2023-04-12T07:02:45;3.80;;;2.55;;
72273;SDS011;60208;48.692;8.948;2023-04-12T07:05:10;4.35;;;1.95;;
72273;SDS011;60208;48.692;8.948;2023-04-12T07:07:36;7.53;;;3.10;;
72273;SDS011;60208;48.692;8.948;2023-04-12T07:10:01;6.35;;;3.20;;
72273;SDS011;60208;48.692;8.948;2023-04-12T07:12:28;6.85;;;4.38;;
72273;SDS011;60208;48.692;8.948;2023-04-12T07:14:53;6.75;;;4.97;;
72273;SDS011;60208;48.692;8.948;2023-04-12T07:17:19;5.13;;;2.97;;
72273;SDS011;60208;48.692;8.948;2023-04-12T07:19:45;5.50;;;2.78;;
72273;SDS011;60208;48.692;8.948;2023-04-12T07:22:11;9.13;;;2.85;;
72273;SDS011;60208;48.692;8.948;2023-04-12T07:24:36;4.50;;;2.50;;
72273;SDS011;60208;48.692;8.948;2023-04-12T07:27:01;6.65;;;2.70;;
72273;SDS011;60208;48.692;8.948;2023-04-12T07:29:28;5.10;;;2.63;;
72273;SDS011;60208;48.692;8.948;2023-04-12T07:31:54;7.30;;;2.80;;
72273;SDS011;60208;48.692;8.948;2023-04-12T07:34:19;3.53;;;2.70;;
72273;SDS011;60208;48.692;8.948;2023-04-12T07:36:45;4.63;;;2.97;;
72273;SDS011;60208;48.692;8.948;2023-04-12T07:39:10;6.82;;;3.00;;
72273;SDS011;60208;48.692;8.948;2023-04-12T07:41:38;6.30;;;4.38;;
72273;SDS011;60208;48.692;8.948;2023-04-12T07:44:04;4.65;;;3.05;;
72273;SDS011;60208;48.692;8.948;2023-04-12T07:46:30;10.15;;;5.38;;
72273;SDS011;60208;48.692;8.948;2023-04-12T07:48:58;4.40;;;3.05;;
72273;SDS011;60208;48.692;8.948;2023-04-12T07:51:24;7.05;;;4.28;;
72273;SDS011;60208;48.692;8.948;2023-04-12T07:53:49;5.55;;;4.72;;
72273;SDS011;60208;48.692;8.948;2023-04-12T07:56:15;7.82;;;4.90;;
72273;SDS011;60208;48.692;8.948;2023-04-12T07:58:41;5.70;;;3.92;;
72273;SDS011;60208;48.692;8.948;2023-04-12T08:01:06;9.88;;;4.60;;
72273;SDS011;60208;48.692;8.948;2023-04-12T08:03:31;4.20;;;3.20;;
72273;SDS011;60208;48.692;8.948;2023-04-12T08:05:57;7.13;;;4.28;;
72273;SDS011;60208;48.692;8.948;2023-04-12T08:08:23;8.63;;;3.53;;
72273;SDS011;60208;48.692;8.948;2023-04-12T08:10:49;4.88;;;3.05;;
72273;SDS011;60208;48.692;8.948;2023-04-12T08:13:15;4.40;;;2.38;;
72273;SDS011;60208;48.692;8.948;2023-04-12T08:15:40;4.95;;;2.55;;
72273;SDS011;60208;48.692;8.948;2023-04-12T08:18:07;5.47;;;2.60;;
72273;SDS011;60208;48.692;8.948;2023-04-12T08:20:34;5.53;;;2.80;;
72273;SDS011;60208;48.692;8.948;2023-04-12T08:23:00;4.85;;;3.05;;
72273;SDS011;60208;48.692;8.948;2023-04-12T08:25:25;7.47;;;3.28;;
72273;SDS011;60208;48.692;8.948;2023-04-12T08:27:51;7.15;;;4.00;;
72273;SDS011;60208;48.692;8.948;2023-04-12T08:30:17;7.43;;;3.45;;
72273;SDS011;60208;48.692;8.948;2023-04-12T08:32:43;4.60;;;3.38;;
72273;SDS011;60208;48.692;8.948;2023-04-12T08:35:08;5.40;;;3.47;;
72273;SDS011;60208;48.692;8.948;2023-04-12T08:37:34;6.47;;;4.38;;
72273;SDS011;60208;48.692;8.948;2023-04-12T08:40:02;4.03;;;3.10;;
72273;SDS011;60208;48.692;8.948;2023-04-12T08:42:29;8.20;;;3.70;;
72273;SDS011;60208;48.692;8.948;2023-04-12T08:44:55;5.25;;;3.03;;
72273;SDS011;60208;48.692;8.948;2023-04-12T08:47:21;4.78;;;3.67;;
72273;SDS011;60208;48.692;8.948;2023-04-12T08:49:46;5.78;;;3.22;;
72273;SDS011;60208;48.692;8.948;2023-04-12T08:52:12;5.72;;;3.42;;
72273;SDS011;60208;48.692;8.948;2023-04-12T08:54:37;8.27;;;3.65;;
72273;SDS011;60208;48.692;8.948;2023-04-12T08:57:04;7.50;;;3.60;;
72273;SDS011;60208;48.692;8.948;2023-04-12T08:59:31;3.83;;;3.20;;
72273;SDS011;60208;48.692;8.948;2023-04-12T09:01:58;7.00;;;3.92;;
72273;SDS011;60208;48.692;8.948;2023-04-12T09:04:24;7.05;;;3.45;;
72273;SDS011;60208;48.692;8.948;2023-04-12T09:06:53;9.70;;;4.05;;
72273;SDS011;60208;48.692;8.948;2023-04-12T09:09:31;13.98;;;7.70;;
72273;SDS011;60208;48.692;8.948;2023-04-12T09:12:08;9.75;;;4.78;;
72273;SDS011;60208;48.692;8.948;2023-04-12T09:14:34;12.07;;;6.00;;
72273;SDS011;60208;48.692;8.948;2023-04-12T09:17:00;12.00;;;4.65;;
72273;SDS011;60208;48.692;8.948;2023-04-12T09:19:32;12.32;;;5.78;;
72273;SDS011;60208;48.692;8.948;2023-04-12T09:21:59;9.70;;;4.28;;
72273;SDS011;60208;48.692;8.948;2023-04-12T09:24:25;9.57;;;4.97;;
72273;SDS011;60208;48.692;8.948;2023-04-12T09:26:59;8.38;;;5.10;;
72273;SDS011;60208;48.692;8.948;2023-04-12T09:29:25;9.25;;;5.05;;
72273;SDS011;60208;48.692;8.948;2023-04-12T09:31:55;14.70;;;5.57;;
72273;SDS011;60208;48.692;8.948;2023-04-12T09:34:27;12.18;;;5.50;;
72273;SDS011;60208;48.692;8.948;2023-04-12T09:36:54;11.05;;;5.30;;
72273;SDS011;60208;48.692;8.948;2023-04-12T09:39:24;12.35;;;5.35;;
72273;SDS011;60208;48.692;8.948;2023-04-12T09:42:08;14.80;;;6.00;;
72273;SDS011;60208;48.692;8.948;2023-04-12T09:44:34;14.18;;;5.38;;
72273;SDS011;60208;48.692;8.948;2023-04-12T09:47:00;19.05;;;8.48;;
72273;SDS011;60208;48.692;8.948;2023-04-12T09:49:37;10.50;;;5.38;;
72273;SDS011;60208;48.692;8.948;2023-04-12T09:52:07;15.27;;;6.72;;
72273;SDS011;60208;48.692;8.948;2023-04-12T09:54:41;16.45;;;6.78;;
72273;SDS011;60208;48.692;8.948;2023-04-12T09:57:08;8.30;;;5.72;;
72273;SDS011;60208;48.692;8.948;2023-04-12T09:59:38;17.80;;;8.18;;
72273;SDS011;60208;48.692;8.948;2023-04-12T10:02:06;12.05;;;5.50;;
72273;SDS011;60208;48.692;8.948;2023-04-12T10:04:36;8.52;;;5.28;;
72273;SDS011;60208;48.692;8.948;2023-04-12T10:07:03;7.68;;;5.38;;
72273;SDS011;60208;48.692;8.948;2023-04-12T10:09:30;24.98;;;11.85;;
72273;SDS011;60208;48.692;8.948;2023-04-12T10:11:55;12.15;;;6.25;;
72273;SDS011;60208;48.692;8.948;2023-04-12T10:14:21;14.60;;;6.82;;
72273;SDS011;60208;48.692;8.948;2023-04-12T10:16:47;10.88;;;5.78;;
72273;SDS011;60208;48.692;8.948;2023-04-12T10:19:13;17.25;;;9.95;;
72273;SDS011;60208;48.692;8.948;2023-04-12T10:21:38;16.85;;;10.57;;
72273;SDS011;60208;48.692;8.948;2023-04-12T10:24:04;13.10;;;5.20;;
72273;SDS011;60208;48.692;8.948;2023-04-12T10:26:31;11.35;;;5.07;;
72273;SDS011;60208;48.692;8.948;2023-04-12T10:31:47;8.52;;;5.20;;
72273;SDS011;60208;48.692;8.948;2023-04-12T10:34:12;8.60;;;4.05;;
72273;SDS011;60208;48.692;8.948;2023-04-12T10:36:56;6.50;;;3.75;;
72273;SDS011;60208;48.692;8.948;2023-04-12T10:39:42;8.43;;;3.92;;
72273;SDS011;60208;48.692;8.948;2023-04-12T10:42:21;6.13;;;2.80;;
72273;SDS011;60208;48.692;8.948;2023-04-12T10:44:54;8.15;;;2.95;;
72273;SDS011;60208;48.692;8.948;2023-04-12T10:50:22;6.82;;;3.55;;
72273;SDS011;60208;48.692;8.948;2023-04-12T10:55:38;5.55;;;2.88;;
72273;SDS011;60208;48.692;8.948;2023-04-12T10:58:03;6.18;;;2.58;;
72273;SDS011;60208;48.692;8.948;2023-04-12T11:03:13;5.47;;;2.13;;
72273;SDS011;60208;48.692;8.948;2023-04-12T11:10:35;4.93;;;1.75;;
72273;SDS011;60208;48.692;8.948;2023-04-12T11:13:04;6.85;;;1.70;;
72273;SDS011;60208;48.692;8.948;2023-04-12T11:15:32;5.18;;;2.00;;
72273;SDS011;60208;48.692;8.948;2023-04-12T11:17:58;3.50;;;1.77;;
72273;SDS011;60208;48.692;8.948;2023-04-12T11:20:25;4.65;;;1.92;;
72273;SDS011;60208;48.692;8.948;2023-04-12T11:22:54;3.63;;;1.80;;
72273;SDS011;60208;48.692;8.948;2023-04-12T11:25:20;3.22;;;1.60;;
72273;SDS011;60208;48.692;8.948;2023-04-12T11:27:49;3.38;;;1.73;;
72273;SDS011;60208;48.692;8.948;2023-04-12T11:30:15;5.38;;;1.67;;
72273;SDS011;60208;48.692;8.948;2023-04-12T11:32:43;2.85;;;1.60;;
72273;SDS011;60208;48.692;8.948;2023-04-12T11:35:08;3.33;;;1.85;;
72273;SDS011;60208;48.692;8.948;2023-04-12T11:37:34;2.30;;;1.63;;
72273;SDS011;60208;48.692;8.948;2023-04-12T11:39:59;3.78;;;1.40;;
72273;SDS011;60208;48.692;8.948;2023-04-12T11:42:29;4.97;;;1.60;;
72273;SDS011;60208;48.692;8.948;2023-04-12T11:44:56;2.65;;;1.48;;
72273;SDS011;60208;48.692;8.948;2023-04-12T11:47:21;2.25;;;1.23;;
72273;SDS011;60208;48.692;8.948;2023-04-12T11:49:52;4.13;;;1.70;;
72273;SDS011;60208;48.692;8.948;2023-04-12T11:52:18;4.28;;;1.60;;
72273;SDS011;60208;48.692;8.948;2023-04-12T11:54:45;1.98;;;1.20;;
72273;SDS011;60208;48.692;8.948;2023-04-12T11:57:12;4.28;;;1.20;;
72273;SDS011;60208;48.692;8.948;2023-04-12T11:59:38;2.20;;;1.30;;
72273;SDS011;60208;48.692;8.948;2023-04-12T12:02:05;1.77;;;1.15;;
72273;SDS011;60208;48.692;8.948;2023-04-12T12:04:31;3.40;;;1.10;;
72273;SDS011;60208;48.692;8.948;2023-04-12T12:06:56;2.03;;;1.20;;
72273;SDS011;60208;48.692;8.948;2023-04-12T12:09:23;4.15;;;1.20;;
72273;SDS011;60208;48.692;8.948;2023-04-12T12:11:49;2.35;;;1.10;;
72273;SDS011;60208;48.692;8.948;2023-04-12T12:14:21;4.07;;;1.25;;
72273;SDS011;60208;48.692;8.948;2023-04-12T12:19:26;3.65;;;1.10;;
72273;SDS011;60208;48.692;8.948;2023-04-12T12:21:52;1.95;;;1.10;;
72273;SDS011;60208;48.692;8.948;2023-04-12T12:24:17;2.85;;;1.10;;
72273;SDS011;60208;48.692;8.948;2023-04-12T12:26:42;3.22;;;1.20;;
72273;SDS011;60208;48.692;8.948;2023-04-12T12:29:15;2.10;;;1.05;;
72273;SDS011;60208;48.692;8.948;2023-04-12T12:31:44;2.80;;;1.13;;
72273;SDS011;60208;48.692;8.948;2023-04-12T12:34:12;2.25;;;1.05;;
72273;SDS011;60208;48.692;8.948;2023-04-12T12:36:38;4.03;;;1.20;;
72273;SDS011;60208;48.692;8.948;2023-04-12T12:41:31;2.97;;;1.30;;
72273;SDS011;60208;48.692;8.948;2023-04-12T12:43:57;3.47;;;1.02;;
72273;SDS011;60208;48.692;8.948;2023-04-12T12:46:22;4.97;;;1.00;;
72273;SDS011;60208;48.692;8.948;2023-04-12T12:48:47;2.63;;;1.05;;
72273;SDS011;60208;48.692;8.948;2023-04-12T12:51:13;2.30;;;1.13;;
72273;SDS011;60208;48.692;8.948;2023-04-12T12:53:43;1.05;;;0.95;;
72273;SDS011;60208;48.692;8.948;2023-04-12T12:56:10;3.22;;;1.17;;
72273;SDS011;60208;48.692;8.948;2023-04-12T12:58:36;1.83;;;1.20;;
72273;SDS011;60208;48.692;8.948;2023-04-12T13:01:02;1.63;;;1.00;;
72273;SDS011;60208;48.692;8.948;2023-04-12T13:03:30;2.08;;;1.20;;
72273;SDS011;60208;48.692;8.948;2023-04-12T13:05:56;2.63;;;1.00;;
72273;SDS011;60208;48.692;8.948;2023-04-12T13:08:22;2.33;;;1.00;;
72273;SDS011;60208;48.692;8.948;2023-04-12T13:10:48;3.25;;;1.20;;
72273;SDS011;60208;48.692;8.948;2023-04-12T13:13:14;2.97;;;1.00;;
72273;SDS011;60208;48.692;8.948;2023-04-12T13:15:40;2.15;;;1.20;;
72273;SDS011;60208;48.692;8.948;2023-04-12T13:18:05;1.88;;;0.95;;
72273;SDS011;60208;48.692;8.948;2023-04-12T13:20:31;2.22;;;1.02;;
72273;SDS011;60208;48.692;8.948;2023-04-12T13:22:57;3.35;;;1.05;;
72273;SDS011;60208;48.692;8.948;2023-04-12T13:25:22;2.65;;;0.95;;
72273;SDS011;60208;48.692;8.948;2023-04-12T13:27:48;2.92;;;1.10;;
72273;SDS011;60208;48.692;8.948;2023-04-12T13:30:13;1.27;;;0.90;;
72273;SDS011;60208;48.692;8.948;2023-04-12T13:32:39;3.45;;;1.00;;
72273;SDS011;60208;48.692;8.948;2023-04-12T13:35:05;2.08;;;1.00;;
72273;SDS011;60208;48.692;8.948;2023-04-12T13:37:32;1.27;;;0.80;;
72273;SDS011;60208;48.692;8.948;2023-04-12T13:39:57;2.08;;;0.90;;
72273;SDS011;60208;48.692;8.948;2023-04-12T13:42:23;1.92;;;0.98;;
72273;SDS011;60208;48.692;8.948;2023-04-12T13:44:48;5.25;;;1.05;;
72273;SDS011;60208;48.692;8.948;2023-04-12T13:47:14;2.72;;;1.00;;
72273;SDS011;60208;48.692;8.948;2023-04-12T13:49:40;2.28;;;0.90;;
72273;SDS011;60208;48.692;8.948;2023-04-12T13:52:05;4.13;;;1.00;;
72273;SDS011;60208;48.692;8.948;2023-04-12T13:54:31;3.10;;;0.90;;
72273;SDS011;60208;48.692;8.948;2023-04-12T13:56:57;0.95;;;0.70;;
72273;SDS011;60208;48.692;8.948;2023-04-12T13:59:23;1.48;;;0.80;;
72273;SDS011;60208;48.692;8.948;2023-04-12T14:01:49;2.33;;;0.95;;
72273;SDS011;60208;48.692;8.948;2023-04-12T14:04:14;1.73;;;0.80;;
72273;SDS011;60208;48.692;8.948;2023-04-12T14:06:40;2.35;;;0.90;;
72273;SDS011;60208;48.692;8.948;2023-04-12T14:09:05;2.03;;;0.75;;
72273;SDS011;60208;48.692;8.948;2023-04-12T14:11:43;1.00;;;0.80;;
72273;SDS011;60208;48.692;8.948;2023-04-12T14:14:10;2.22;;;1.00;;
72273;SDS011;60208;48.692;8.948;2023-04-12T14:16:35;1.25;;;0.70;;
72273;SDS011;60208;48.692;8.948;2023-04-12T14:19:00;2.78;;;0.90;;
72273;SDS011;60208;48.692;8.948;2023-04-12T14:21:26;1.60;;;0.77;;
72273;SDS011;60208;48.692;8.948;2023-04-12T14:23:53;0.85;;;0.60;;
72273;SDS011;60208;48.692;8.948;2023-04-12T14:26:18;3.97;;;0.80;;
72273;SDS011;60208;48.692;8.948;2023-04-12T14:28:43;2.63;;;0.82;;
72273;SDS011;60208;48.692;8.948;2023-04-12T14:31:09;2.35;;;0.60;;
72273;SDS011;60208;48.692;8.948;2023-04-12T14:33:34;2.65;;;0.75;;
72273;SDS011;60208;48.692;8.948;2023-04-12T14:36:00;1.58;;;0.60;;
72273;SDS011;60208;48.692;8.948;2023-04-12T14:38:28;3.20;;;0.70;;
72273;SDS011;60208;48.692;8.948;2023-04-12T14:40:54;1.38;;;0.65;;
72273;SDS011;60208;48.692;8.948;2023-04-12T14:43:20;1.73;;;0.52;;
72273;SDS011;60208;48.692;8.948;2023-04-12T14:45:46;2.05;;;0.68;;
72273;SDS011;60208;48.692;8.948;2023-04-12T14:48:11;1.92;;;0.50;;
72273;SDS011;60208;48.692;8.948;2023-04-12T14:50:36;2.40;;;0.70;;
72273;SDS011;60208;48.692;8.948;2023-04-12T14:53:02;3.90;;;0.70;;
72273;SDS011;60208;48.692;8.948;2023-04-12T14:55:27;1.08;;;0.60;;
72273;SDS011;60208;48.692;8.948;2023-04-12T14:57:52;3.20;;;0.68;;
72273;SDS011;60208;48.692;8.948;2023-04-12T15:00:18;2.58;;;0.70;;
72273;SDS011;60208;48.692;8.948;2023-04-12T15:02:44;1.98;;;0.70;;
72273;SDS011;60208;48.692;8.948;2023-04-12T15:05:11;0.73;;;0.70;;
72273;SDS011;60208;48.692;8.948;2023-04-12T15:07:36;3.50;;;0.90;;
72273;SDS011;60208;48.692;8.948;2023-04-12T15:10:03;3.40;;;0.50;;
72273;SDS011;60208;48.692;8.948;2023-04-12T15:12:29;2.35;;;0.70;;
72273;SDS011;60208;48.692;8.948;2023-04-12T15:14:57;4.18;;;0.55;;